Time;durP1;ratioP1;P1;durP2;ratioP2;P2;SDS_P1;SDS_P2;PMS_P1;PMS_P2;Temp;Humidity;BMP_temperature;BMP_pressure;BME280_temperature;BME280_humidity;BME280_pressure;Samples;Min_cycle;Max_cycle;Signal;HPM_P1;HPM_P2
2023/09/03 00:00:15;;;;;;;18.95;12.50;;;;;;;16.95;94.98;102435.56;5113804;28;20389;-61
2023/09/03 00:02:40;;;;;;;16.83;12.80;;;;;;;16.95;94.81;102438.22;5113472;28;20116;-62
2023/09/03 00:05:06;;;;;;;13.60;11.60;;;;;;;16.94;94.26;102444.44;5113314;28;20061;-61
2023/09/03 00:07:32;;;;;;;16.27;12.57;;;;;;;16.93;94.15;102444.44;5113646;28;20171;-60
2023/09/03 00:09:57;;;;;;;15.43;12.75;;;;;;;16.91;94.01;102440.84;5113175;28;20559;-62
2023/09/03 00:12:23;;;;;;;17.17;12.43;;;;;;;16.84;94.75;102439.00;5113343;28;20035;-61
2023/09/03 00:14:48;;;;;;;15.38;12.73;;;;;;;16.81;95.05;102442.53;5113172;28;20542;-61
2023/09/03 00:17:14;;;;;;;16.42;13.15;;;;;;;16.81;95.01;102437.19;5094855;28;20038;-60
2023/09/03 00:19:40;;;;;;;16.70;12.10;;;;;;;16.78;94.82;102437.16;5113349;28;20392;-62
2023/09/03 00:22:05;;;;;;;14.90;12.25;;;;;;;16.68;94.97;102427.25;5113128;28;20062;-62
2023/09/03 00:24:34;;;;;;;16.52;11.90;;;;;;;16.64;95.52;102425.41;5113062;28;20113;-61
2023/09/03 00:26:59;;;;;;;13.93;11.45;;;;;;;16.68;95.66;102443.25;5113371;28;20051;-62
2023/09/03 00:29:24;;;;;;;16.63;11.65;;;;;;;16.63;95.80;102436.97;5113272;28;20457;-61
2023/09/03 00:31:50;;;;;;;14.70;11.40;;;;;;;16.66;95.61;102442.31;5113272;28;20377;-62
2023/09/03 00:34:15;;;;;;;13.27;10.85;;;;;;;16.58;95.94;102439.59;5113043;28;20103;-61
2023/09/03 00:36:41;;;;;;;13.15;10.20;;;;;;;16.58;95.96;102444.94;5094889;28;20032;-62
2023/09/03 00:39:06;;;;;;;12.93;10.93;;;;;;;16.55;96.34;102454.66;5112791;28;20038;-61
2023/09/03 00:41:32;;;;;;;14.35;11.20;;;;;;;16.51;96.54;102448.41;5112713;28;20042;-60
2023/09/03 00:43:57;;;;;;;14.15;10.90;;;;;;;16.50;96.52;102446.63;5113187;28;20060;-63
2023/09/03 00:46:24;;;;;;;13.57;10.90;;;;;;;16.51;96.73;102454.63;5113173;28;20027;-61
2023/09/03 00:48:50;;;;;;;14.40;11.13;;;;;;;16.48;96.48;102449.25;5112895;28;20024;-60
2023/09/03 00:51:17;;;;;;;15.77;10.63;;;;;;;16.52;96.16;102459.06;5094844;28;20027;-60
2023/09/03 00:53:47;;;;;;;17.30;10.50;;;;;;;16.44;96.53;102452.75;5113791;28;20119;-61
2023/09/03 00:56:13;;;;;;;13.15;10.70;;;;;;;16.40;96.84;102463.38;5116868;28;20035;-62
2023/09/03 00:58:40;;;;;;;14.63;10.93;;;;;;;16.40;97.17;102463.38;5116827;28;20020;-62
2023/09/03 01:01:06;;;;;;;13.38;10.45;;;;;;;16.36;97.04;102465.13;5116509;28;20027;-62
2023/09/03 01:03:32;;;;;;;11.95;10.57;;;;;;;16.35;97.28;102465.09;5116397;28;20087;-62
2023/09/03 01:05:57;;;;;;;12.63;10.93;;;;;;;16.30;97.33;102462.34;5116726;28;20541;-62
2023/09/03 01:08:24;;;;;;;13.73;10.85;;;;;;;16.31;97.69;102472.16;5116390;28;20522;-61
2023/09/03 01:11:18;;;;;;;13.02;10.85;;;;;;;16.34;97.71;102471.31;5116558;28;20061;-62
2023/09/03 01:14:08;;;;;;;15.23;10.85;;;;;;;16.29;97.96;102476.59;5116474;28;20019;-60
2023/09/03 01:17:06;;;;;;;13.77;10.65;;;;;;;16.33;97.32;102461.50;5116297;28;20038;-61
2023/09/03 01:19:59;;;;;;;16.38;10.48;;;;;;;16.29;97.60;102468.56;5116463;28;20024;-62
2023/09/03 01:22:24;;;;;;;;;;;;;;;16.42;96.59;102456.28;5116627;28;20022;-61
2023/09/03 01:25:05;;;;;;;11.97;9.93;;;;;;;16.36;97.35;102464.19;5115956;28;19987;-62
2023/09/03 01:27:41;;;;;;;14.90;11.02;;;;;;;16.30;97.45;102456.13;5116025;28;20273;-61
2023/09/03 01:30:08;;;;;;;15.00;10.48;;;;;;;16.23;97.80;102455.13;5116281;28;20197;-61
2023/09/03 01:32:36;;;;;;;12.30;10.75;;;;;;;16.14;98.06;102465.69;5115879;28;20035;-61
2023/09/03 01:35:02;;;;;;;16.45;10.50;;;;;;;16.10;98.42;102461.19;5115961;28;20056;-60
2023/09/03 01:37:28;;;;;;;11.73;10.30;;;;;;;16.06;98.24;102460.28;5115774;28;20031;-62
2023/09/03 01:39:53;;;;;;;12.40;10.75;;;;;;;16.03;98.55;102465.56;5115751;28;20020;-61
2023/09/03 01:42:19;;;;;;;16.52;10.98;;;;;;;16.05;98.23;102460.22;5115491;28;20378;-61
2023/09/03 01:44:44;;;;;;;17.33;10.88;;;;;;;16.03;97.65;102468.22;5115757;28;20035;-62
2023/09/03 01:47:27;;;;;;;13.68;10.27;;;;;;;16.03;97.23;102462.88;5115622;28;20028;-61
2023/09/03 01:49:52;;;;;;;14.13;10.13;;;;;;;16.02;96.96;102462.00;5115772;28;20504;-61
2023/09/03 01:52:35;;;;;;;16.48;10.93;;;;;;;16.01;96.74;102457.50;5115585;28;20023;-61
2023/09/03 01:55:05;;;;;;;13.77;11.02;;;;;;;16.01;97.04;102456.63;5115146;28;20330;-61
2023/09/03 01:57:34;;;;;;;12.68;10.35;;;;;;;16.02;96.45;102454.00;5115719;28;20037;-59
2023/09/03 02:00:07;;;;;;;15.52;10.82;;;;;;;15.99;96.67;102458.38;5115405;28;20024;-62
2023/09/03 02:02:33;;;;;;;;;;;;;;;16.12;96.01;102459.47;5115741;28;20023;-61
2023/09/03 02:04:58;;;;;;;12.52;10.50;;;;;;;15.99;96.20;102467.28;5114827;28;20027;-61
2023/09/03 02:07:24;;;;;;;12.73;10.00;;;;;;;15.94;95.78;102462.75;5114996;28;20024;-60
2023/09/03 02:09:49;;;;;;;12.45;9.93;;;;;;;15.96;95.98;102466.34;5115290;28;20020;-62
2023/09/03 02:12:23;;;;;;;12.75;10.57;;;;;;;15.94;96.16;102481.44;5115240;28;20096;-62
2023/09/03 02:14:49;;;;;;;11.75;10.43;;;;;;;15.87;96.44;102490.19;5115126;28;20059;-61
2023/09/03 02:17:19;;;;;;;12.85;10.85;;;;;;;15.86;96.80;102491.97;5115054;28;20055;-61
2023/09/03 02:19:45;;;;;;;14.23;10.77;;;;;;;15.80;97.29;102493.63;5115380;28;20423;-61
2023/09/03 02:22:10;;;;;;;15.10;11.05;;;;;;;15.78;97.68;102491.84;5115144;28;20024;-60
2023/09/03 02:24:36;;;;;;;15.50;10.88;;;;;;;15.79;97.33;102500.72;5114572;28;20032;-61
2023/09/03 02:27:01;;;;;;;16.25;10.82;;;;;;;15.75;97.65;102499.78;5115024;28;20024;-62
2023/09/03 02:29:27;;;;;;;12.95;10.10;;;;;;;15.67;96.80;102496.13;5096817;28;20031;-62
2023/09/03 02:31:52;;;;;;;13.68;10.68;;;;;;;15.65;96.84;102502.28;5114992;28;20027;-60
2023/09/03 02:34:18;;;;;;;14.10;10.45;;;;;;;15.65;97.06;102518.28;5096680;28;20024;-60
2023/09/03 02:36:43;;;;;;;12.73;10.52;;;;;;;15.64;97.44;102521.78;5114980;28;20084;-60
2023/09/03 02:39:09;;;;;;;11.77;9.95;;;;;;;15.63;97.38;102507.56;5114550;28;20503;-61
2023/09/03 02:41:34;;;;;;;14.63;11.18;;;;;;;15.53;96.41;102503.84;5114342;28;20044;-61
2023/09/03 02:44:01;;;;;;;11.63;9.60;;;;;;;15.45;96.82;102502.81;5096391;28;20047;-60
2023/09/03 02:46:27;;;;;;;13.18;9.80;;;;;;;15.41;97.33;102490.31;5114598;28;20120;-61
2023/09/03 02:48:53;;;;;;;13.18;10.82;;;;;;;15.37;97.31;102485.78;5114446;28;20055;-61
2023/09/03 02:51:18;;;;;;;11.50;9.80;;;;;;;15.40;97.39;102485.84;5114703;28;20073;-60
2023/09/03 02:53:45;;;;;;;15.68;11.05;;;;;;;15.40;97.74;102479.63;5114331;28;20024;-61
2023/09/03 02:56:12;;;;;;;15.65;10.38;;;;;;;15.41;97.28;102476.97;5113981;28;20038;-61
2023/09/03 02:58:38;;;;;;;14.07;10.05;;;;;;;15.43;97.14;102488.56;5114229;28;20036;-61
2023/09/03 03:01:05;;;;;;;14.02;10.43;;;;;;;15.43;97.26;102493.91;5114175;28;20035;-60
2023/09/03 03:03:31;;;;;;;11.88;10.43;;;;;;;15.43;97.30;102493.91;5114143;28;20077;-61
2023/09/03 03:05:56;;;;;;;12.45;10.52;;;;;;;15.46;97.06;102501.03;5114129;28;20031;-60
2023/09/03 03:08:21;;;;;;;12.30;9.65;;;;;;;15.44;96.31;102506.34;5114161;28;20476;-61
2023/09/03 03:10:47;;;;;;;12.93;10.00;;;;;;;15.46;96.29;102509.03;5114137;28;20024;-61
2023/09/03 03:13:12;;;;;;;11.13;9.90;;;;;;;15.42;95.83;102509.88;5114032;28;20086;-60
2023/09/03 03:15:37;;;;;;;14.50;9.85;;;;;;;15.39;95.74;102504.47;5113873;28;20020;-62
2023/09/03 03:18:03;;;;;;;12.98;9.27;;;;;;;15.30;95.75;102502.56;5113759;28;20030;-61
2023/09/03 03:20:29;;;;;;;17.08;9.13;;;;;;;15.17;96.24;102492.56;5095601;28;20024;-61
2023/09/03 03:22:54;;;;;;;10.75;9.30;;;;;;;15.09;96.67;102486.19;5113815;28;20042;-61
2023/09/03 03:25:20;;;;;;;12.93;10.05;;;;;;;15.05;97.18;102471.91;5113552;28;20546;-61
2023/09/03 03:27:45;;;;;;;15.88;10.05;;;;;;;15.02;97.75;102462.09;5113760;28;20066;-61
2023/09/03 03:30:11;;;;;;;12.07;9.73;;;;;;;14.99;97.97;102462.06;5113950;28;20024;-60
2023/09/03 03:32:37;;;;;;;12.57;9.15;;;;;;;14.92;98.32;102452.16;5114074;28;20035;-60
2023/09/03 03:35:02;;;;;;;10.50;8.15;;;;;;;14.85;98.80;102446.69;5113695;28;20028;-61
2023/09/03 03:37:28;;;;;;;11.65;8.85;;;;;;;14.79;99.42;102468.78;5113868;28;20042;-61
2023/09/03 03:39:54;;;;;;;12.13;8.65;;;;;;;14.84;99.18;102471.50;5113489;28;20388;-61
2023/09/03 03:42:19;;;;;;;11.60;8.95;;;;;;;14.88;98.85;102492.00;5113269;28;20051;-61
2023/09/03 03:44:45;;;;;;;13.45;9.13;;;;;;;14.90;98.79;102499.16;5113454;28;20028;-61
2023/09/03 03:47:11;;;;;;;12.25;9.77;;;;;;;14.85;98.85;102484.84;5113434;28;20024;-61
2023/09/03 03:49:36;;;;;;;12.73;9.63;;;;;;;14.91;98.85;102511.59;5113511;28;20114;-61
2023/09/03 03:52:01;;;;;;;14.77;10.10;;;;;;;14.89;99.19;102510.66;5113605;28;20077;-62
2023/09/03 03:54:27;;;;;;;12.32;10.43;;;;;;;14.90;99.53;102507.16;5095080;28;20096;-61
2023/09/03 03:56:52;;;;;;;13.05;9.45;;;;;;;14.88;98.90;102489.34;5113771;28;20049;-61
2023/09/03 03:59:17;;;;;;;14.48;9.73;;;;;;;14.90;99.09;102499.16;5095520;28;20110;-61
2023/09/03 04:01:44;;;;;;;12.35;10.00;;;;;;;14.94;98.82;102497.44;5113519;28;20469;-62
2023/09/03 04:04:09;;;;;;;12.95;9.95;;;;;;;15.03;98.86;102513.56;5113328;28;20118;-62
2023/09/03 04:06:35;;;;;;;13.75;10.20;;;;;;;15.03;98.38;102516.22;5095046;28;20604;-61
2023/09/03 04:09:00;;;;;;;13.48;9.40;;;;;;;15.03;98.15;102516.22;5095048;28;20032;-61
2023/09/03 04:11:26;;;;;;;11.98;9.43;;;;;;;15.05;98.10;102518.94;5113134;28;20102;-62
2023/09/03 04:13:51;;;;;;;13.48;9.55;;;;;;;14.98;97.50;102523.25;5113585;28;20031;-62
2023/09/03 04:16:19;;;;;;;14.18;9.18;;;;;;;14.93;97.54;102522.25;5113460;28;20023;-61
2023/09/03 04:18:45;;;;;;;13.82;8.10;;;;;;;14.86;96.94;102530.97;5113146;28;20024;-61
2023/09/03 04:21:11;;;;;;;12.07;7.75;;;;;;;14.78;96.92;102531.75;5113424;28;20028;-61
2023/09/03 04:23:37;;;;;;;9.93;7.45;;;;;;;14.72;97.13;102528.94;5113091;28;20110;-61
2023/09/03 04:26:03;;;;;;;10.07;7.85;;;;;;;14.71;97.66;102527.16;5112759;28;20055;-61
2023/09/03 04:28:28;;;;;;;12.18;8.85;;;;;;;14.71;98.25;102535.13;5113531;28;20469;-60
2023/09/03 04:30:56;;;;;;;10.98;8.57;;;;;;;14.71;98.18;102528.91;5117073;28;20027;-61
2023/09/03 04:33:22;;;;;;;13.38;8.50;;;;;;;14.73;97.95;102532.50;5117295;28;20091;-60
2023/09/03 04:35:53;;;;;;;9.30;7.70;;;;;;;14.73;97.99;102530.75;5117027;28;20115;-61
2023/09/03 04:38:18;;;;;;;10.10;8.07;;;;;;;14.80;97.82;102528.22;5116993;28;20035;-61
2023/09/03 04:40:44;;;;;;;9.82;8.48;;;;;;;14.84;97.43;102541.59;5116924;28;20026;-60
2023/09/03 04:43:09;;;;;;;11.20;8.00;;;;;;;14.90;97.27;102547.06;5116596;28;20071;-61
2023/09/03 04:45:35;;;;;;;12.95;9.10;;;;;;;14.88;97.33;102534.59;5116820;28;20050;-60
2023/09/03 04:48:00;;;;;;;9.13;8.13;;;;;;;14.77;97.12;102537.94;5116914;28;20431;-61
2023/09/03 04:50:26;;;;;;;11.63;8.90;;;;;;;14.72;97.58;102526.28;5117044;28;20027;-61
2023/09/03 04:52:55;;;;;;;11.13;8.88;;;;;;;14.74;98.09;102539.63;5116799;28;20370;-62
2023/09/03 04:55:20;;;;;;;10.77;8.70;;;;;;;14.69;98.33;102552.84;5116466;28;20020;-60
2023/09/03 04:57:46;;;;;;;12.40;9.48;;;;;;;14.70;98.72;102564.38;5116839;28;20031;-60
2023/09/03 05:00:12;;;;;;;11.35;9.45;;;;;;;14.73;98.70;102575.06;5116254;28;20103;-61
2023/09/03 05:02:37;;;;;;;11.63;9.52;;;;;;;14.75;98.73;102570.69;5116186;28;20119;-61
2023/09/03 05:05:03;;;;;;;10.95;9.57;;;;;;;14.78;98.35;102568.09;5116074;28;20413;-61
2023/09/03 05:07:29;;;;;;;12.18;9.60;;;;;;;14.83;98.34;102570.88;5115891;28;20028;-60
2023/09/03 05:09:55;;;;;;;10.50;9.23;;;;;;;14.83;97.75;102568.19;5097732;28;20020;-61
2023/09/03 05:12:21;;;;;;;12.93;8.95;;;;;;;14.80;97.77;102565.47;5115909;28;20046;-60
2023/09/03 05:14:46;;;;;;;11.85;8.73;;;;;;;14.73;97.82;102568.00;5115851;28;20023;-60
2023/09/03 05:17:12;;;;;;;10.63;8.25;;;;;;;14.79;98.16;102569.91;5115863;28;20093;-60
2023/09/03 05:19:38;;;;;;;11.20;7.20;;;;;;;14.87;98.23;102578.94;5115887;28;20157;-61
2023/09/03 05:22:03;;;;;;;11.68;7.82;;;;;;;14.88;97.66;102583.38;5115706;28;20069;-61
2023/09/03 05:24:29;;;;;;;8.73;7.45;;;;;;;14.92;97.45;102581.69;5115544;28;20164;-61
2023/09/03 05:26:54;;;;;;;9.88;7.38;;;;;;;14.92;97.44;102585.25;5115849;28;20030;-62
2023/09/03 05:29:20;;;;;;;11.50;7.25;;;;;;;15.00;97.77;102591.63;5115797;28;20043;-62
2023/09/03 05:31:46;;;;;;;10.95;7.57;;;;;;;15.06;97.19;102577.53;5115746;28;20035;-62
2023/09/03 05:34:11;;;;;;;11.45;7.13;;;;;;;15.17;97.17;102589.31;5114927;28;20048;-62
2023/09/03 05:36:37;;;;;;;7.60;6.78;;;;;;;15.25;96.99;102590.38;5115679;28;20106;-61
2023/09/03 05:39:02;;;;;;;10.80;6.95;;;;;;;15.27;96.58;102595.72;5115808;28;20493;-61
2023/09/03 05:41:27;;;;;;;10.55;7.13;;;;;;;15.31;96.71;102596.66;5113951;28;20056;-62
2023/09/03 05:43:53;;;;;;;10.45;7.03;;;;;;;15.34;96.61;102588.75;5115323;28;20456;-62
2023/09/03 05:46:19;;;;;;;10.25;7.40;;;;;;;15.36;96.94;102587.00;5115693;28;20035;-62
2023/09/03 05:48:49;;;;;;;10.95;7.43;;;;;;;15.32;97.25;102583.38;5096991;28;20035;-61
2023/09/03 05:51:14;;;;;;;12.48;7.80;;;;;;;15.29;97.76;102583.34;5097396;28;20035;-62
2023/09/03 05:53:39;;;;;;;10.82;8.02;;;;;;;15.35;98.03;102588.75;5115412;28;20037;-62
2023/09/03 05:56:10;;;;;;;10.52;9.10;;;;;;;15.41;98.10;102588.88;5114879;28;20035;-62
2023/09/03 05:58:36;;;;;;;11.00;8.98;;;;;;;15.40;98.22;102600.41;5115109;28;20469;-62
2023/09/03 06:01:06;;;;;;;11.38;8.88;;;;;;;15.44;98.33;102604.03;5115014;28;20035;-61
2023/09/03 06:03:31;;;;;;;12.57;9.63;;;;;;;15.43;98.41;102605.78;5096719;28;20170;-61
2023/09/03 06:06:03;;;;;;;12.02;9.93;;;;;;;15.52;98.82;102610.41;5114465;28;20036;-60
2023/09/03 06:08:33;;;;;;;11.55;9.73;;;;;;;15.56;98.61;102606.91;5114694;28;20055;-61
2023/09/03 06:11:00;;;;;;;11.40;9.68;;;;;;;15.65;98.56;102616.88;5114599;28;20111;-62
2023/09/03 06:13:30;;;;;;;10.85;9.68;;;;;;;15.72;98.53;102626.78;5114809;28;20024;-61
2023/09/03 06:15:56;;;;;;;12.18;10.25;;;;;;;15.76;98.58;102633.97;5114753;28;20055;-60
2023/09/03 06:18:22;;;;;;;13.73;10.30;;;;;;;15.82;98.39;102625.19;5096268;28;20031;-61
2023/09/03 06:20:48;;;;;;;12.98;9.98;;;;;;;15.78;98.68;102630.44;5114677;28;20063;-60
2023/09/03 06:23:17;;;;;;;15.07;11.43;;;;;;;15.74;99.04;102633.94;5114398;28;20045;-61
2023/09/03 06:25:43;;;;;;;12.32;10.95;;;;;;;15.77;99.71;102635.75;5114511;28;20055;-61
2023/09/03 06:28:09;;;;;;;14.77;11.70;;;;;;;15.81;100.00;102642.06;5114351;28;20439;-61
2023/09/03 06:30:34;;;;;;;15.73;12.20;;;;;;;15.84;100.00;102639.41;5114722;28;20081;-62
2023/09/03 06:33:00;;;;;;;17.30;13.60;;;;;;;15.91;100.00;102652.91;5114135;28;20027;-61
2023/09/03 06:35:25;;;;;;;16.98;13.35;;;;;;;15.94;99.76;102650.28;5114582;28;20111;-61
2023/09/03 06:37:51;;;;;;;18.23;13.07;;;;;;;16.00;99.99;102663.72;5114028;28;20084;-62
2023/09/03 06:40:16;;;;;;;16.77;13.73;;;;;;;16.10;100.00;102661.19;5114019;28;20107;-60
2023/09/03 06:42:42;;;;;;;18.27;14.38;;;;;;;16.14;100.00;102668.38;5113946;28;20051;-61
2023/09/03 06:45:08;;;;;;;19.35;13.93;;;;;;;16.15;99.80;102675.53;5114426;28;20027;-62
2023/09/03 06:47:34;;;;;;;18.45;14.00;;;;;;;16.22;100.00;102675.63;5114218;28;20063;-62
2023/09/03 06:49:59;;;;;;;17.73;14.15;;;;;;;16.29;99.74;102679.31;5114146;28;20066;-62
2023/09/03 06:52:24;;;;;;;18.25;14.88;;;;;;;16.28;99.37;102670.44;5095581;28;20062;-61
2023/09/03 06:54:50;;;;;;;17.38;14.00;;;;;;;16.44;100.00;102681.31;5113784;28;20055;-61
2023/09/03 06:57:16;;;;;;;16.95;13.68;;;;;;;16.58;99.88;102677.13;5114168;28;20425;-61
2023/09/03 06:59:41;;;;;;;16.58;14.15;;;;;;;16.79;99.84;102684.59;5114025;28;20102;-61
2023/09/03 07:02:07;;;;;;;19.67;14.55;;;;;;;17.01;99.33;102691.13;5113767;28;20042;-61
2023/09/03 07:04:34;;;;;;;18.80;15.00;;;;;;;17.14;98.73;102686.84;5113651;28;20514;-61
2023/09/03 07:06:59;;;;;;;19.98;15.18;;;;;;;17.28;97.64;102691.47;5095803;28;20019;-62
2023/09/03 07:09:28;;;;;;;20.25;15.10;;;;;;;17.49;97.63;102695.28;5113653;28;20072;-60
2023/09/03 07:11:54;;;;;;;19.15;15.48;;;;;;;17.60;96.09;102693.66;5113521;28;20077;-62
2023/09/03 07:14:20;;;;;;;19.25;15.73;;;;;;;17.79;96.30;102691.22;5113678;28;20111;-61
2023/09/03 07:16:45;;;;;;;21.02;15.93;;;;;;;17.99;95.88;102695.88;5113486;28;20123;-61
2023/09/03 07:19:10;;;;;;;22.27;17.33;;;;;;;18.02;93.38;102697.66;5113568;28;20034;-60
2023/09/03 07:21:36;;;;;;;19.42;16.33;;;;;;;18.23;92.45;102697.88;5113465;28;20069;-61
2023/09/03 07:24:01;;;;;;;18.95;16.85;;;;;;;18.36;90.49;102698.88;5113607;28;20023;-61
2023/09/03 07:26:27;;;;;;;19.08;16.38;;;;;;;18.55;89.45;102693.66;5113148;28;20542;-62
2023/09/03 07:28:52;;;;;;;18.90;16.25;;;;;;;18.79;90.00;102691.16;5113378;28;20028;-61
2023/09/03 07:31:17;;;;;;;20.42;16.88;;;;;;;18.97;89.84;102702.03;5078157;28;20038;-60
2023/09/03 07:33:44;;;;;;;23.92;17.20;;;;;;;19.33;89.22;102704.88;5113263;28;20389;-61
2023/09/03 07:36:11;;;;;;;25.55;20.08;;;;;;;19.50;87.17;102705.81;5113233;28;20458;-62
2023/09/03 07:38:37;;;;;;;21.25;17.20;;;;;;;19.71;85.84;102711.28;5113436;28;20028;-61
2023/09/03 07:41:03;;;;;;;22.10;17.88;;;;;;;19.92;84.14;102714.91;5113146;28;20057;-61
2023/09/03 07:43:29;;;;;;;19.42;16.85;;;;;;;20.13;84.30;102722.09;5112782;28;20510;-61
2023/09/03 07:45:54;;;;;;;21.48;17.58;;;;;;;20.36;82.12;102719.41;5113097;28;20042;-62
2023/09/03 07:48:20;;;;;;;19.95;16.52;;;;;;;20.48;81.94;102727.50;5113059;28;20027;-61
2023/09/03 07:50:45;;;;;;;19.20;16.63;;;;;;;20.59;81.98;102730.19;5113096;28;20425;-60
2023/09/03 07:53:11;;;;;;;19.67;16.58;;;;;;;20.90;80.68;102728.38;5113005;28;20089;-60
2023/09/03 07:55:37;;;;;;;21.77;16.58;;;;;;;21.02;79.57;102726.50;5112833;28;20099;-60
2023/09/03 07:58:02;;;;;;;23.30;18.92;;;;;;;21.07;78.69;102728.28;5094736;28;20020;-61
2023/09/03 08:00:28;;;;;;;39.80;35.67;;;;;;;21.14;78.77;102727.38;5113219;28;20035;-60
2023/09/03 08:02:54;;;;;;;37.47;32.65;;;;;;;21.30;78.15;102725.56;5113053;28;20039;-61
2023/09/03 08:05:20;;;;;;;22.25;18.63;;;;;;;21.46;78.66;102728.22;5116663;28;20015;-60
2023/09/03 08:07:45;;;;;;;17.70;15.50;;;;;;;21.59;77.43;102717.41;5117282;28;20377;-61
2023/09/03 08:10:11;;;;;;;17.17;15.20;;;;;;;21.80;75.94;102721.72;5116932;28;20084;-61
2023/09/03 08:12:36;;;;;;;20.20;15.02;;;;;;;21.87;76.38;102710.03;5117485;28;20023;-61
2023/09/03 08:15:02;;;;;;;16.98;15.02;;;;;;;22.00;76.52;102720.69;5098709;28;20487;-60
2023/09/03 08:17:30;;;;;;;17.77;14.98;;;;;;;22.07;75.47;102718.88;5117381;28;20032;-60
2023/09/03 08:19:56;;;;;;;19.45;16.13;;;;;;;22.19;76.29;102709.84;5117209;28;20055;-61
2023/09/03 08:22:22;;;;;;;16.75;14.93;;;;;;;22.19;74.26;102702.66;5116985;28;20082;-60
2023/09/03 08:24:47;;;;;;;18.58;14.90;;;;;;;22.19;76.11;102715.25;5116645;28;20066;-60
2023/09/03 08:27:12;;;;;;;17.35;15.52;;;;;;;22.36;76.71;102715.09;5116826;28;20024;-60
2023/09/03 08:29:38;;;;;;;17.65;15.10;;;;;;;22.44;74.29;102714.13;5117093;28;20053;-61
2023/09/03 08:32:04;;;;;;;18.23;15.25;;;;;;;22.46;74.01;102711.41;5117116;28;20058;-60
2023/09/03 08:34:29;;;;;;;19.48;14.63;;;;;;;22.68;73.44;102710.28;5117003;28;20035;-60
2023/09/03 08:36:54;;;;;;;19.35;15.13;;;;;;;22.86;74.81;102711.00;5116573;28;20053;-61
2023/09/03 08:39:20;;;;;;;17.10;14.52;;;;;;;23.03;72.85;102722.53;5116736;28;20032;-59
2023/09/03 08:41:46;;;;;;;18.42;14.52;;;;;;;23.16;72.25;102726.00;5116282;28;20173;-61
2023/09/03 08:44:27;;;;;;;18.35;15.02;;;;;;;23.27;73.59;102732.16;5116700;28;20039;-61
2023/09/03 08:46:59;;;;;;;17.05;15.25;;;;;;;23.32;71.21;102729.41;5116352;28;20035;-61
2023/09/03 08:49:24;;;;;;;;;;;;;;;23.51;74.47;102730.97;5117030;28;20031;-61
2023/09/03 08:51:50;;;;;;;19.60;13.90;;;;;;;23.73;71.11;102737.00;5116251;28;19930;-61
2023/09/03 08:54:16;;;;;;;16.92;15.15;;;;;;;23.83;69.88;102721.56;5098573;28;20042;-60
2023/09/03 08:56:41;;;;;;;19.17;14.95;;;;;;;24.11;69.02;102731.03;5115974;28;20372;-60
2023/09/03 08:59:09;;;;;;;16.42;14.50;;;;;;;24.28;68.63;102727.13;5116317;28;20086;-61
2023/09/03 09:01:35;;;;;;;19.25;14.70;;;;;;;24.61;67.00;102732.00;5116248;28;20028;-61
2023/09/03 09:04:03;;;;;;;18.73;14.50;;;;;;;24.84;66.64;102736.09;5116061;28;20055;-60
2023/09/03 09:06:30;;;;;;;15.85;13.48;;;;;;;25.03;64.47;102734.84;5116218;28;20028;-60
2023/09/03 09:08:58;;;;;;;14.00;12.43;;;;;;;25.29;64.52;102723.53;5116022;28;20027;-60
2023/09/03 09:11:31;;;;;;;15.07;12.25;;;;;;;25.39;63.63;102714.28;5116322;28;20020;-61
2023/09/03 09:13:58;;;;;;;15.73;11.85;;;;;;;25.43;61.26;102721.41;5116018;28;20106;-60
2023/09/03 09:16:24;;;;;;;15.43;11.27;;;;;;;25.61;60.49;102730.97;5116058;28;20032;-60
2023/09/03 09:18:49;;;;;;;13.63;10.98;;;;;;;25.69;59.88;102725.34;5116133;28;20031;-61
2023/09/03 09:21:17;;;;;;;11.40;8.82;;;;;;;25.75;57.12;102725.22;5115938;28;20488;-61
2023/09/03 09:23:43;;;;;;;13.45;9.73;;;;;;;25.68;59.64;102729.00;5115810;28;20028;-60
2023/09/03 09:26:17;;;;;;;13.30;8.70;;;;;;;25.52;58.58;102723.00;5115748;28;20380;-61
2023/09/03 09:29:03;;;;;;;13.68;9.55;;;;;;;25.47;60.39;102717.69;5080609;28;20061;-60
2023/09/03 09:31:33;;;;;;;15.73;8.30;;;;;;;25.47;56.50;102716.81;5115533;28;20069;-61
2023/09/03 09:34:10;;;;;;;9.73;7.85;;;;;;;25.63;58.10;102717.38;5111686;28;20035;-61
2023/09/03 09:36:36;;;;;;;12.32;9.02;;;;;;;26.09;57.30;102719.06;5095039;28;20030;-61
2023/09/03 09:39:08;;;;;;;13.10;9.88;;;;;;;26.21;56.89;102707.91;5094352;28;20459;-61
2023/09/03 09:41:43;;;;;;;10.63;7.30;;;;;;;26.10;53.52;102707.28;5112691;28;20051;-61
2023/09/03 09:44:10;;;;;;;10.07;6.95;;;;;;;26.07;53.93;102715.47;5113327;28;20035;-61
2023/09/03 09:46:36;;;;;;;9.23;7.53;;;;;;;25.92;52.31;102709.50;5115200;28;20495;-61
2023/09/03 09:49:02;;;;;;;9.32;6.63;;;;;;;25.90;51.39;102705.03;5097059;28;20051;-61
2023/09/03 09:51:29;;;;;;;11.30;6.95;;;;;;;25.94;49.69;102696.81;5115533;28;20027;-61
2023/09/03 09:54:02;;;;;;;8.32;6.93;;;;;;;26.01;53.32;102700.28;5115461;28;20065;-62
2023/09/03 09:56:35;;;;;;;12.82;7.75;;;;;;;25.88;50.48;102701.50;5115212;28;20471;-60
2023/09/03 09:59:02;;;;;;;11.32;7.93;;;;;;;26.00;53.61;102694.91;5096924;28;20050;-61
2023/09/03 10:01:41;;;;;;;10.25;7.55;;;;;;;26.19;55.20;102697.09;5097104;28;20038;-61
2023/09/03 10:04:07;;;;;;;11.05;7.22;;;;;;;26.29;52.87;102697.75;5108852;28;20063;-61
2023/09/03 10:06:33;;;;;;;11.20;7.30;;;;;;;26.16;53.26;102704.41;5105018;28;20066;-61
2023/09/03 10:08:59;;;;;;;11.93;7.63;;;;;;;26.28;51.23;102697.78;5104113;28;20082;-59
2023/09/03 10:11:24;;;;;;;9.52;7.80;;;;;;;26.31;50.33;102701.31;5085139;28;20024;-60
2023/09/03 10:13:50;;;;;;;11.20;7.35;;;;;;;26.48;52.63;102700.03;5104996;28;20029;-60
2023/09/03 10:16:19;;;;;;;8.93;7.28;;;;;;;26.80;52.80;102704.56;5103504;28;20016;-61
2023/09/03 10:18:47;;;;;;;9.13;7.25;;;;;;;27.09;51.43;102704.69;5084947;28;20020;-60
2023/09/03 10:21:19;;;;;;;10.73;6.82;;;;;;;27.14;48.76;102701.81;5103373;28;20027;-60
2023/09/03 10:23:48;;;;;;;9.43;6.65;;;;;;;27.30;49.36;102702.28;5103154;28;20031;-61
2023/09/03 10:26:19;;;;;;;8.80;6.53;;;;;;;27.35;48.35;102697.59;5102132;28;20027;-59
2023/09/03 10:28:47;;;;;;;9.15;6.38;;;;;;;27.58;47.42;102691.44;5095112;28;20017;-60
2023/09/03 10:31:15;;;;;;;12.65;7.40;;;;;;;27.66;48.70;102689.38;5094291;28;20028;-61
2023/09/03 10:33:41;;;;;;;13.07;7.18;;;;;;;27.59;48.46;102696.84;5094042;28;20077;-59
2023/09/03 10:36:21;;;;;;;11.13;7.00;;;;;;;27.73;48.70;102692.84;5094286;28;20107;-60
2023/09/03 10:38:47;;;;;;;12.70;7.65;;;;;;;27.87;47.15;102691.44;5094348;28;20043;-61
2023/09/03 10:41:25;;;;;;;10.68;7.00;;;;;;;27.99;48.10;102695.59;5093815;28;20016;-61
2023/09/03 10:43:52;;;;;;;11.23;7.20;;;;;;;28.28;46.93;102694.63;5093792;28;20040;-60
2023/09/03 10:46:18;;;;;;;8.98;6.55;;;;;;;28.36;45.16;102689.84;5094321;28;20065;-61
2023/09/03 10:48:57;;;;;;;9.00;6.57;;;;;;;28.49;47.34;102701.19;5093939;28;20403;-61
2023/09/03 10:51:34;;;;;;;12.05;6.13;;;;;;;28.40;45.97;102699.69;5093723;28;20549;-62
2023/09/03 10:54:20;;;;;;;9.82;6.28;;;;;;;28.49;47.92;102703.03;5093934;28;20038;-61
2023/09/03 10:57:03;;;;;;;9.10;6.00;;;;;;;28.53;47.03;102704.69;5093825;28;20021;-61
2023/09/03 11:00:08;;;;;;;12.30;6.72;;;;;;;28.38;48.50;102700.66;5093603;28;20107;-61
2023/09/03 11:02:36;;;;;;;8.70;6.00;;;;;;;28.65;44.89;102694.25;5093615;28;20035;-61
2023/09/03 11:05:23;;;;;;;7.85;5.80;;;;;;;28.56;47.56;102697.28;5093486;28;20419;-60
2023/09/03 11:08:09;;;;;;;8.00;6.40;;;;;;;28.66;44.69;102689.72;5093845;28;20466;-61
2023/09/03 11:10:35;;;;;;;8.50;6.53;;;;;;;29.00;46.04;102693.97;5097667;28;20473;-61
2023/09/03 11:13:04;;;;;;;8.07;6.32;;;;;;;29.09;43.50;102699.94;5103851;28;20023;-61
2023/09/03 11:15:30;;;;;;;12.40;6.95;;;;;;;29.02;42.71;102702.94;5102143;28;20450;-60